createdAt,value
2019-02-12T00:00:22.624Z,4.00
2019-02-12T00:02:51.300Z,3.90
2019-02-12T00:05:20.004Z,3.90
2019-02-12T00:07:48.952Z,3.90
2019-02-12T00:10:17.589Z,4.00
2019-02-12T00:12:46.262Z,4.00
2019-02-12T00:15:14.997Z,4.10
2019-02-12T00:17:43.695Z,4.10
2019-02-12T00:20:12.345Z,4.10
2019-02-12T00:22:41.065Z,4.00
2019-02-12T00:25:09.759Z,4.10
2019-02-12T00:27:38.450Z,4.00
2019-02-12T00:30:09.682Z,4.10
2019-02-12T00:32:38.344Z,4.30
2019-02-12T00:35:07.434Z,4.40
2019-02-12T00:37:36.162Z,4.40
2019-02-12T00:40:06.857Z,4.50
2019-02-12T00:42:36.383Z,4.60
2019-02-12T00:45:07.316Z,4.40
2019-02-12T00:47:35.997Z,4.20
2019-02-12T00:50:06.158Z,4.10
2019-02-12T00:52:34.886Z,4.20
2019-02-12T00:55:03.875Z,4.40
2019-02-12T00:57:32.551Z,4.40
2019-02-12T01:00:01.340Z,4.50
2019-02-12T01:02:30.023Z,4.60
2019-02-12T01:04:58.727Z,4.70
2019-02-12T01:07:27.419Z,4.80
2019-02-12T01:09:56.143Z,4.90
2019-02-12T01:12:24.801Z,5.00
2019-02-12T01:14:53.671Z,5.10
2019-02-12T01:17:22.489Z,5.10
2019-02-12T01:19:51.188Z,5.10
2019-02-12T01:22:19.891Z,5.20
2019-02-12T01:24:48.578Z,5.10
2019-02-12T01:27:17.244Z,5.00
2019-02-12T01:29:45.969Z,5.00
2019-02-12T01:32:14.643Z,4.90
2019-02-12T01:34:43.333Z,4.80
2019-02-12T01:37:12.045Z,4.80
2019-02-12T01:39:40.709Z,4.80
2019-02-12T01:42:09.380Z,4.90
2019-02-12T01:44:38.129Z,4.90
2019-02-12T01:47:06.807Z,4.80
2019-02-12T01:49:35.480Z,4.70
2019-02-12T01:52:04.207Z,4.50
2019-02-12T01:54:32.878Z,4.50
2019-02-12T01:57:01.558Z,4.50
2019-02-12T01:59:30.357Z,4.50
2019-02-12T02:01:59.006Z,4.50
2019-02-12T02:04:27.672Z,4.50
2019-02-12T02:06:56.401Z,4.40
2019-02-12T02:09:25.055Z,4.50
2019-02-12T02:11:53.722Z,4.50
2019-02-12T02:14:22.420Z,4.50
2019-02-12T02:16:51.096Z,4.50
2019-02-12T02:19:19.749Z,4.40
2019-02-12T02:21:48.479Z,4.40
2019-02-12T02:24:17.139Z,4.30
2019-02-12T02:26:45.793Z,4.20
2019-02-12T02:29:14.518Z,4.20
2019-02-12T02:31:43.242Z,4.20
2019-02-12T02:34:11.893Z,4.20
2019-02-12T02:36:40.601Z,4.30
2019-02-12T02:39:09.271Z,4.30
2019-02-12T02:41:38.039Z,4.30
2019-02-12T02:44:06.733Z,4.30
2019-02-12T02:46:35.410Z,4.30
2019-02-12T02:49:04.084Z,4.40
2019-02-12T02:51:32.798Z,4.40
2019-02-12T02:54:01.484Z,4.40
2019-02-12T02:56:30.148Z,4.40
2019-02-12T02:58:58.901Z,4.40
2019-02-12T03:01:27.566Z,4.40
2019-02-12T03:03:56.209Z,4.30
2019-02-12T03:06:24.937Z,4.30
2019-02-12T03:08:53.604Z,4.30
2019-02-12T03:11:22.283Z,4.20
2019-02-12T03:13:51.018Z,4.20
2019-02-12T03:16:19.655Z,4.20
2019-02-12T03:18:48.344Z,4.20
2019-02-12T03:21:17.045Z,4.20
2019-02-12T03:23:45.700Z,4.20
2019-02-12T03:26:14.416Z,4.20
2019-02-12T03:28:43.144Z,4.20
2019-02-12T03:31:11.847Z,4.20
2019-02-12T03:33:40.590Z,4.20
2019-02-12T03:36:09.395Z,4.20
2019-02-12T03:38:38.068Z,4.20
2019-02-12T03:41:06.719Z,4.20
2019-02-12T03:43:35.430Z,4.10
2019-02-12T03:46:04.074Z,4.10
2019-02-12T03:48:32.774Z,4.10
2019-02-12T03:51:01.632Z,4.00
2019-02-12T03:53:30.293Z,4.00
2019-02-12T03:55:58.980Z,4.00
2019-02-12T03:58:27.713Z,4.00
2019-02-12T04:00:56.361Z,4.00
2019-02-12T04:03:25.014Z,4.00
2019-02-12T04:05:53.835Z,4.00
2019-02-12T04:08:22.502Z,3.90
2019-02-12T04:10:51.161Z,4.00
2019-02-12T04:13:19.841Z,4.00
2019-02-12T04:15:48.514Z,4.20
2019-02-12T04:18:17.221Z,4.20
2019-02-12T04:20:45.968Z,4.10
2019-02-12T04:23:14.593Z,4.00
2019-02-12T04:25:43.257Z,4.00
2019-02-12T04:28:11.963Z,3.90
2019-02-12T04:30:40.625Z,3.90
2019-02-12T04:33:09.304Z,3.90
2019-02-12T04:35:38.029Z,3.90
2019-02-12T04:38:06.668Z,4.00
2019-02-12T04:40:35.347Z,3.90
2019-02-12T04:43:04.050Z,3.90
2019-02-12T04:45:32.724Z,4.00
2019-02-12T04:48:01.422Z,4.00
2019-02-12T04:50:30.970Z,4.00
2019-02-12T04:52:59.648Z,3.90
2019-02-12T04:55:28.373Z,3.90
2019-02-12T04:57:57.212Z,3.90
2019-02-12T05:00:25.908Z,3.90
2019-02-12T05:02:54.570Z,3.80
2019-02-12T05:05:23.285Z,3.80
2019-02-12T05:07:51.962Z,3.70
2019-02-12T05:10:23.720Z,3.70
2019-02-12T05:12:52.438Z,3.70
2019-02-12T05:15:21.096Z,3.70
2019-02-12T05:17:49.762Z,3.70
2019-02-12T05:20:18.447Z,3.70
2019-02-12T05:22:47.238Z,3.70
2019-02-12T05:25:15.923Z,3.70
2019-02-12T05:27:44.646Z,3.70
2019-02-12T05:30:14.438Z,3.60
2019-02-12T05:32:43.079Z,3.70
2019-02-12T05:35:11.784Z,3.80
2019-02-12T05:37:51.247Z,4.00
2019-02-12T05:40:20.022Z,4.00
2019-02-12T05:42:48.668Z,4.00
2019-02-12T05:45:17.326Z,4.00
2019-02-12T05:47:46.049Z,4.00
2019-02-12T05:50:16.340Z,4.00
2019-02-12T05:52:53.940Z,4.00
2019-02-12T05:55:15.386Z,4.00
2019-02-12T05:57:44.055Z,4.00
2019-02-12T06:00:19.268Z,4.10
2019-02-12T06:02:47.957Z,4.00
2019-02-12T06:05:30.049Z,4.00
2019-02-12T06:07:58.767Z,4.10
2019-02-12T06:10:27.482Z,4.20
2019-02-12T06:12:56.280Z,4.20
2019-02-12T06:15:25.035Z,4.20
2019-02-12T06:17:53.655Z,4.20
2019-02-12T06:20:22.484Z,4.30
2019-02-12T06:22:51.164Z,4.30
2019-02-12T06:25:19.874Z,4.20
2019-02-12T06:27:48.595Z,4.20
2019-02-12T06:30:17.300Z,4.20
2019-02-12T06:32:45.981Z,4.20
2019-02-12T06:35:14.690Z,4.30
2019-02-12T06:37:43.359Z,4.20
2019-02-12T06:40:12.205Z,4.30
2019-02-12T06:42:40.929Z,4.20
2019-02-12T06:45:13.962Z,4.30
2019-02-12T06:47:42.640Z,4.40
2019-02-12T06:50:13.542Z,4.40
2019-02-12T06:52:42.207Z,4.30
2019-02-12T06:55:11.621Z,4.30
2019-02-12T06:57:40.380Z,4.40
2019-02-12T07:00:15.010Z,4.40
2019-02-12T07:03:17.823Z,4.70
2019-02-12T07:06:06.650Z,4.70
2019-02-12T07:08:59.765Z,4.50
2019-02-12T07:11:49.706Z,4.40
2019-02-12T07:14:21.606Z,4.50
2019-02-12T07:16:56.352Z,4.50
2019-02-12T07:19:40.008Z,4.80
2019-02-12T07:22:17.613Z,4.70
2019-02-12T07:25:16.222Z,4.60
2019-02-12T07:28:02.495Z,4.60
2019-02-12T07:30:53.711Z,4.50
2019-02-12T07:33:28.096Z,4.70
2019-02-12T07:36:16.502Z,4.60
2019-02-12T07:38:51.145Z,4.60
2019-02-12T07:41:28.906Z,4.50
2019-02-12T07:44:00.708Z,4.40
2019-02-12T07:46:35.441Z,4.50
2019-02-12T07:49:31.693Z,4.50
2019-02-12T07:52:15.675Z,4.50
2019-02-12T07:54:50.248Z,4.60
2019-02-12T07:57:41.804Z,4.50
2019-02-12T08:00:34.937Z,4.50
2019-02-12T08:03:26.235Z,4.60
2019-02-12T08:06:00.780Z,4.60
2019-02-12T08:08:55.059Z,4.60
2019-02-12T08:11:46.101Z,4.60
2019-02-12T08:14:34.516Z,4.60
2019-02-12T08:17:21.649Z,4.90
2019-02-12T08:20:27.880Z,4.80
2019-02-12T08:23:16.366Z,4.70
2019-02-12T08:26:20.023Z,4.70
2019-02-12T08:29:11.019Z,4.80
2019-02-12T08:31:42.861Z,4.90
2019-02-12T08:34:17.635Z,4.80
2019-02-12T08:37:01.293Z,5.00
2019-02-12T08:39:55.423Z,4.90
2019-02-12T08:42:30.106Z,4.90
2019-02-12T08:45:20.123Z,4.80
2019-02-12T08:48:00.945Z,4.90
2019-02-12T08:50:47.463Z,4.90
2019-02-12T08:53:54.058Z,4.80
2019-02-12T08:56:45.309Z,4.70
2019-02-12T08:59:20.780Z,4.80
2019-02-12T09:01:58.612Z,4.80
2019-02-12T09:04:33.216Z,4.90
2019-02-12T09:07:10.958Z,4.90
2019-02-12T09:10:01.130Z,4.90
2019-02-12T09:13:01.812Z,4.90
2019-02-12T09:15:48.724Z,5.00
2019-02-12T09:18:53.885Z,5.00
2019-02-12T09:21:37.383Z,5.10
2019-02-12T09:24:14.676Z,5.00
2019-02-12T09:27:04.467Z,5.10
2019-02-12T09:29:45.033Z,5.20
2019-02-12T09:32:22.894Z,5.20
2019-02-12T09:34:57.425Z,5.30
2019-02-12T09:37:50.863Z,5.40
2019-02-12T09:40:31.625Z,5.60
2019-02-12T09:43:09.579Z,5.80
2019-02-12T09:45:47.343Z,5.90
2019-02-12T09:48:28.007Z,5.90
2019-02-12T09:51:17.850Z,5.80
2019-02-12T09:54:08.781Z,5.90
2019-02-12T09:56:49.717Z,6.00
2019-02-12T09:59:24.241Z,6.30
2019-02-12T10:02:04.400Z,6.40
2019-02-12T10:04:45.398Z,6.60
2019-02-12T10:07:17.222Z,7.20
2019-02-12T10:10:01.173Z,7.20
2019-02-12T10:12:44.790Z,6.80
2019-02-12T10:15:19.428Z,6.80
2019-02-12T10:18:06.096Z,8.20
2019-02-12T10:20:55.754Z,7.40
2019-02-12T10:23:53.257Z,6.70
2019-02-12T10:26:28.031Z,6.90
2019-02-12T10:29:14.867Z,6.70
2019-02-12T10:31:42.751Z,6.70
2019-02-12T10:34:11.624Z,6.60
2019-02-12T10:36:40.289Z,6.40
2019-02-12T10:39:10.302Z,6.40
2019-02-12T10:41:38.994Z,6.30
2019-02-12T10:44:07.664Z,6.20
2019-02-12T10:46:36.500Z,6.20
2019-02-12T10:49:05.203Z,6.10
2019-02-12T10:51:33.859Z,6.00
2019-02-12T10:54:02.580Z,6.00
2019-02-12T10:56:31.248Z,5.90
2019-02-12T10:58:59.919Z,5.80
2019-02-12T11:01:28.629Z,5.90
2019-02-12T11:03:58.173Z,5.90
2019-02-12T11:06:26.805Z,6.00
2019-02-12T11:08:55.569Z,6.10
2019-02-12T11:11:24.226Z,6.10
2019-02-12T11:13:52.891Z,6.10
2019-02-12T11:16:21.630Z,6.10
2019-02-12T11:18:50.287Z,6.20
2019-02-12T11:21:18.978Z,6.50
2019-02-12T11:23:47.688Z,6.80
2019-02-12T11:26:16.677Z,6.80
2019-02-12T11:28:45.343Z,6.50
2019-02-12T11:31:14.074Z,6.30
2019-02-12T11:33:42.715Z,6.20
2019-02-12T11:36:11.373Z,6.10
2019-02-12T11:38:40.079Z,6.10
2019-02-12T11:41:08.754Z,6.00
2019-02-12T11:43:37.411Z,6.00
2019-02-12T11:46:06.143Z,6.10
2019-02-12T11:48:34.844Z,6.00
2019-02-12T11:51:03.516Z,6.00
2019-02-12T11:53:32.238Z,6.00
2019-02-12T11:56:00.893Z,6.10
2019-02-12T11:58:29.587Z,6.00
2019-02-12T12:00:59.409Z,6.10
2019-02-12T12:03:28.062Z,6.20
2019-02-12T12:05:57.592Z,6.20
2019-02-12T12:08:26.318Z,6.20
2019-02-12T12:10:55.082Z,6.40
2019-02-12T12:13:23.733Z,6.80
2019-02-12T12:15:52.507Z,6.60
2019-02-12T12:18:21.176Z,6.50
2019-02-12T12:20:49.827Z,6.30
2019-02-12T12:23:18.546Z,6.10
2019-02-12T12:25:47.272Z,6.00
2019-02-12T12:28:15.948Z,6.20
2019-02-12T12:30:44.702Z,6.20
2019-02-12T12:33:13.318Z,5.90
2019-02-12T12:35:41.980Z,5.90
2019-02-12T12:38:10.734Z,5.80
2019-02-12T12:40:39.397Z,5.60
2019-02-12T12:43:08.050Z,5.60
2019-02-12T12:45:36.880Z,5.50
2019-02-12T12:48:05.546Z,5.50
2019-02-12T12:50:34.231Z,5.50
2019-02-12T12:53:02.940Z,5.50
2019-02-12T12:55:31.584Z,5.60
2019-02-12T12:58:00.313Z,5.50
2019-02-12T13:00:29.053Z,5.50
2019-02-12T13:02:57.734Z,5.70
2019-02-12T13:05:26.475Z,6.10
2019-02-12T13:07:56.107Z,6.20
2019-02-12T13:10:24.835Z,6.10
2019-02-12T13:12:53.443Z,6.10
2019-02-12T13:15:22.170Z,6.00
2019-02-12T13:17:50.809Z,6.00
2019-02-12T13:20:20.205Z,6.00
2019-02-12T13:22:48.955Z,6.10
2019-02-12T13:25:17.630Z,6.20
2019-02-12T13:27:46.301Z,6.20
2019-02-12T13:30:19.224Z,6.40
2019-02-12T13:32:47.957Z,6.30
2019-02-12T13:35:16.605Z,6.20
2019-02-12T13:37:45.292Z,6.20
2019-02-12T13:40:14.244Z,6.10
2019-02-12T13:42:42.912Z,6.00
2019-02-12T13:45:16.549Z,5.90
2019-02-12T13:47:45.364Z,5.80
2019-02-12T13:50:14.086Z,5.80
2019-02-12T13:52:42.799Z,5.70
2019-02-12T13:55:17.511Z,5.80
2019-02-12T13:57:42.576Z,5.90
2019-02-12T14:00:18.701Z,5.90
2019-02-12T14:02:47.509Z,5.90
2019-02-12T14:05:21.481Z,6.20
2019-02-12T14:07:50.293Z,6.20
2019-02-12T14:10:19.728Z,6.10
2019-02-12T14:12:48.382Z,6.10
2019-02-12T14:15:17.408Z,6.10
2019-02-12T14:17:46.063Z,6.30
2019-02-12T14:20:16.908Z,6.30
2019-02-12T14:22:45.622Z,6.30
2019-02-12T14:25:15.088Z,6.30
2019-02-12T14:27:43.734Z,6.10
2019-02-12T14:30:20.404Z,6.20
2019-02-12T14:32:49.256Z,6.10
2019-02-12T14:35:17.902Z,6.00
2019-02-12T14:37:46.659Z,5.90
2019-02-12T14:40:16.861Z,5.80
2019-02-12T14:42:45.543Z,5.80
2019-02-12T14:45:20.804Z,5.90
2019-02-12T14:47:49.441Z,5.90
2019-02-12T14:50:19.561Z,5.90
2019-02-12T14:52:48.254Z,5.90
2019-02-12T14:55:16.917Z,5.80
2019-02-12T14:57:45.670Z,5.80
2019-02-12T15:00:16.660Z,5.80
2019-02-12T15:02:45.365Z,5.80
2019-02-12T15:05:14.021Z,5.80
2019-02-12T15:07:42.728Z,5.90
2019-02-12T15:10:12.789Z,5.90
2019-02-12T15:12:42.316Z,5.90
2019-02-12T15:15:11.699Z,5.80
2019-02-12T15:17:40.482Z,5.70
2019-02-12T15:20:13.059Z,5.80
2019-02-12T15:22:42.150Z,5.90
2019-02-12T15:25:11.904Z,6.00
2019-02-12T15:27:40.543Z,6.00
2019-02-12T15:30:17.100Z,6.00
2019-02-12T15:32:46.162Z,6.00
2019-02-12T15:35:14.821Z,5.90
2019-02-12T15:37:43.530Z,5.80
2019-02-12T15:40:17.163Z,5.80
2019-02-12T15:42:46.177Z,5.80
2019-02-12T15:45:22.951Z,5.80
2019-02-12T15:47:51.694Z,5.70
2019-02-12T15:50:20.372Z,5.70
2019-02-12T15:52:49.048Z,5.70
2019-02-12T15:55:17.845Z,5.70
2019-02-12T15:57:46.800Z,5.70
2019-02-12T16:00:18.573Z,5.80
2019-02-12T16:02:47.988Z,5.80
2019-02-12T16:05:16.681Z,5.70
2019-02-12T16:07:47.366Z,5.60
2019-02-12T16:10:20.762Z,5.40
2019-02-12T16:12:51.469Z,5.30
2019-02-12T16:15:22.340Z,5.30
2019-02-12T16:17:50.928Z,5.20
2019-02-12T16:20:19.614Z,5.30
2019-02-12T16:22:48.337Z,5.30
2019-02-12T16:25:17.017Z,5.30
2019-02-12T16:27:45.763Z,5.30
2019-02-12T16:30:21.954Z,5.20
2019-02-12T16:32:50.625Z,5.20
2019-02-12T16:35:19.283Z,5.20
2019-02-12T16:37:48.008Z,5.20
2019-02-12T16:40:17.837Z,5.20
2019-02-12T16:42:46.558Z,5.30
2019-02-12T16:45:34.858Z,5.20
2019-02-12T16:48:03.656Z,5.20
2019-02-12T16:50:35.731Z,5.20
2019-02-12T16:53:07.485Z,5.20
2019-02-12T16:55:36.272Z,5.20
2019-02-12T16:58:05.325Z,5.20
2019-02-12T17:00:34.041Z,5.00
2019-02-12T17:03:02.698Z,4.90
2019-02-12T17:05:31.366Z,4.80
2019-02-12T17:08:00.075Z,4.80
2019-02-12T17:10:28.760Z,4.70
2019-02-12T17:12:57.415Z,4.80
2019-02-12T17:15:26.109Z,4.70
2019-02-12T17:17:54.793Z,4.70
2019-02-12T17:20:24.324Z,4.60
2019-02-12T17:22:53.063Z,4.60
2019-02-12T17:25:21.732Z,4.60
2019-02-12T17:27:50.454Z,4.60
2019-02-12T17:30:19.146Z,4.70
2019-02-12T17:32:47.923Z,4.70
2019-02-12T17:35:16.586Z,4.70
2019-02-12T17:37:45.287Z,4.80
2019-02-12T17:40:18.289Z,4.80
2019-02-12T17:42:46.951Z,4.80
2019-02-12T17:45:17.185Z,4.80
2019-02-12T17:47:45.850Z,4.80
2019-02-12T17:50:15.120Z,4.80
2019-02-12T17:52:43.858Z,4.80
2019-02-12T17:55:12.496Z,4.80
2019-02-12T17:57:41.278Z,4.80
2019-02-12T18:00:17.246Z,4.80
2019-02-12T18:02:45.946Z,4.80
2019-02-12T18:05:14.625Z,4.80
2019-02-12T18:07:43.326Z,4.70
2019-02-12T18:10:12.540Z,4.60
2019-02-12T18:12:41.287Z,4.60
2019-02-12T18:15:11.884Z,4.60
2019-02-12T18:17:40.804Z,4.40
2019-02-12T18:20:11.893Z,4.30
2019-02-12T18:22:40.848Z,4.20
2019-02-12T18:25:12.469Z,4.10
2019-02-12T18:27:41.648Z,4.00
2019-02-12T18:30:17.550Z,4.00
2019-02-12T18:32:46.312Z,3.90
2019-02-12T18:35:14.993Z,3.90
2019-02-12T18:37:43.756Z,3.80
2019-02-12T18:40:15.055Z,3.90
2019-02-12T18:42:43.711Z,3.90
2019-02-12T18:45:15.187Z,3.80
2019-02-12T18:47:43.875Z,3.80
2019-02-12T18:50:12.836Z,3.70
2019-02-12T18:52:41.535Z,3.70
2019-02-12T18:55:14.983Z,3.80
2019-02-12T18:57:43.614Z,3.70
2019-02-12T19:00:19.888Z,3.90
2019-02-12T19:02:48.549Z,3.90
2019-02-12T19:05:17.198Z,3.80
2019-02-12T19:07:45.945Z,3.80
2019-02-12T19:10:16.416Z,3.70
2019-02-12T19:12:45.115Z,3.70
2019-02-12T19:15:19.209Z,3.60
2019-02-12T19:17:52.537Z,3.60
2019-02-12T19:20:21.423Z,3.60
2019-02-12T19:22:50.254Z,3.70
2019-02-12T19:25:18.947Z,3.70
2019-02-12T19:27:47.619Z,3.70
2019-02-12T19:30:16.628Z,3.70
2019-02-12T19:32:45.308Z,3.70
2019-02-12T19:35:13.991Z,3.60
2019-02-12T19:37:42.712Z,3.50
2019-02-12T19:40:12.137Z,3.40
2019-02-12T19:42:40.796Z,3.40
2019-02-12T19:45:14.644Z,3.30
2019-02-12T19:47:43.412Z,3.30
2019-02-12T19:50:12.310Z,3.30
2019-02-12T19:52:41.015Z,3.30
2019-02-12T19:55:10.234Z,3.30
2019-02-12T19:57:39.007Z,3.40
2019-02-12T20:00:19.597Z,3.40
2019-02-12T20:02:49.267Z,3.50
2019-02-12T20:05:17.934Z,3.50
2019-02-12T20:07:46.627Z,3.50
2019-02-12T20:10:15.669Z,3.40
2019-02-12T20:12:44.372Z,3.40
2019-02-12T20:15:21.742Z,3.40
2019-02-12T20:17:50.439Z,3.40
2019-02-12T20:20:19.092Z,3.30
2019-02-12T20:22:47.807Z,3.20
2019-02-12T20:25:17.328Z,3.20
2019-02-12T20:27:46.061Z,3.10
2019-02-12T20:30:16.818Z,3.10
2019-02-12T20:32:45.531Z,3.00
2019-02-12T20:35:24.928Z,3.00
2019-02-12T20:37:53.581Z,2.90
2019-02-12T20:40:22.270Z,2.90
2019-02-12T20:42:50.978Z,2.90
2019-02-12T20:45:19.863Z,2.90
2019-02-12T20:47:48.533Z,2.90
2019-02-12T20:50:19.517Z,2.90
2019-02-12T20:52:48.182Z,2.90
2019-02-12T20:55:22.746Z,2.90
2019-02-12T20:57:52.279Z,2.90
2019-02-12T21:00:24.619Z,2.90
2019-02-12T21:02:53.298Z,2.90
2019-02-12T21:05:22.122Z,2.80
2019-02-12T21:07:50.780Z,2.70
2019-02-12T21:10:24.223Z,2.70
2019-02-12T21:12:52.965Z,2.70
2019-02-12T21:15:23.372Z,2.70
2019-02-12T21:17:52.023Z,2.70
2019-02-12T21:20:20.790Z,2.70
2019-02-12T21:22:49.408Z,2.70
2019-02-12T21:25:18.097Z,2.70
2019-02-12T21:27:47.010Z,2.70
2019-02-12T21:30:18.172Z,2.70
2019-02-12T21:32:46.859Z,2.70
2019-02-12T21:35:15.896Z,2.60
2019-02-12T21:37:44.595Z,2.60
2019-02-12T21:40:18.630Z,2.60
2019-02-12T21:42:47.662Z,2.70
2019-02-12T21:45:16.395Z,2.70
2019-02-12T21:47:45.046Z,2.70
2019-02-12T21:50:13.795Z,2.60
2019-02-12T21:52:42.508Z,2.70
2019-02-12T21:55:16.720Z,2.70
2019-02-12T21:57:45.553Z,2.80
2019-02-12T22:00:20.672Z,2.90
2019-02-12T22:02:49.349Z,3.00
2019-02-12T22:05:18.076Z,2.90
2019-02-12T22:07:46.739Z,2.90
2019-02-12T22:10:29.314Z,2.90
2019-02-12T22:12:57.983Z,3.00
2019-02-12T22:15:26.657Z,3.10
2019-02-12T22:17:55.600Z,3.10
2019-02-12T22:20:24.571Z,3.20
2019-02-12T22:22:53.243Z,3.20
2019-02-12T22:25:21.983Z,3.10
2019-02-12T22:27:50.754Z,3.10
2019-02-12T22:30:26.041Z,3.00
2019-02-12T22:32:54.694Z,2.90
2019-02-12T22:35:23.362Z,2.80
2019-02-12T22:37:52.165Z,2.80
2019-02-12T22:40:20.840Z,2.80
2019-02-12T22:42:49.489Z,2.80
2019-02-12T22:45:20.381Z,2.90
2019-02-12T22:47:49.049Z,2.90
2019-02-12T22:50:17.777Z,2.80
2019-02-12T22:52:46.544Z,2.70
2019-02-12T22:55:15.202Z,2.70
2019-02-12T22:57:49.230Z,2.60
2019-02-12T23:00:25.108Z,2.60
2019-02-12T23:02:53.811Z,2.60
2019-02-12T23:05:22.513Z,2.50
2019-02-12T23:07:51.217Z,2.40
2019-02-12T23:10:19.941Z,2.40
2019-02-12T23:12:48.755Z,2.50
2019-02-12T23:15:17.481Z,2.40
2019-02-12T23:17:46.147Z,2.20
2019-02-12T23:20:14.836Z,2.10
2019-02-12T23:22:43.591Z,2.10
2019-02-12T23:25:12.235Z,2.20
2019-02-12T23:27:40.906Z,2.30
2019-02-12T23:30:10.826Z,2.30
2019-02-12T23:32:40.330Z,2.30
2019-02-12T23:35:09.002Z,2.30
2019-02-12T23:37:37.768Z,2.30
2019-02-12T23:40:08.022Z,2.20
2019-02-12T23:42:36.707Z,2.20
2019-02-12T23:45:07.186Z,2.20
2019-02-12T23:47:35.861Z,2.20
2019-02-12T23:50:05.986Z,2.20
2019-02-12T23:52:34.689Z,2.20
2019-02-12T23:55:03.465Z,2.20
2019-02-12T23:57:32.149Z,2.20
